ADDS METAR Data INFO
IDs: Format: Raw Decoded Include TAF

Data at: 2114 UTC 22 Oct 2017

KABY 222053Z 08005KT 10SM SCT065 SCT080 31/18 A3009 RMK AO2 SLP185 T03060183 56022
KABY 221953Z 13008KT 10SM BKN060 31/18 A3010 RMK AO2 SLP190 T03060178
KABY 221853Z 10009KT 10SM BKN049 31/18 A3012 RMK AO2 SLP197 T03060183
KABY 221753Z 13011KT 10SM SCT042 BKN055 31/19 A3015 RMK AO2 SLP208 T03060189 10306 20189 58019
KABY 221653Z 11010G19KT 10SM BKN038 29/19 A3018 RMK AO2 SLP217 T02890189
KABY 221600Z 12012KT 10SM SCT025 BKN032 BKN040 29/20 A3019 RMK AO2 T02890200
KABY 221553Z 13012KT 10SM BKN021 28/19 A3020 RMK AO2 SLP224 T02780194
KABY 221453Z 11013KT 10SM BKN021 27/21 A3021 RMK AO2 SLP227 T02670206 58001
KABY 221446Z 13012KT 10SM BKN021 27/21 A3021 RMK AO2 T02670206
KABY 221416Z 09009KT 10SM CLR 26/21 A3022 RMK AO2 T02560206
KABY 221353Z 10008KT 10SM CLR 24/20 A3022 RMK AO2 SLP231 T02390200
KABY 221253Z 07006KT 10SM FEW038 20/19 A3022 RMK AO2 SLP230 T02000189
KABY 221153Z 05004KT 10SM CLR 19/18 A3021 RMK AO2 SLP228 T01890183 10200 20178 51009
KABY 221053Z AUTO 07005KT 10SM CLR 18/18 A3021 RMK AO2 SLP227 T01830178
KABY 220953Z AUTO 06004KT 10SM CLR 18/18 A3019 RMK AO2 SLP221 T01830178
KABY 220853Z AUTO 06006KT 10SM SCT060 19/18 A3018 RMK AO2 SLP218 T01890183 56011
KABY 220753Z AUTO 05005KT 10SM FEW044 OVC060 20/19 A3018 RMK AO2 SLP219 T02000189
KABY 220653Z AUTO 05006KT 10SM BKN048 19/18 A3020 RMK AO2 SLP224 T01940183
KABY 220553Z AUTO 09006KT 10SM CLR 20/18 A3021 RMK AO2 SLP230 T02000183 10244 20189 58008
KABY 220453Z AUTO 09005KT 10SM CLR 20/18 A3022 RMK AO2 SLP233 T02000183 402940156
KABY 220353Z AUTO 10006KT 10SM CLR 21/18 A3023 RMK AO2 SLP236 T02110178
KABY 220253Z AUTO 09005KT 10SM CLR 21/17 A3024 RMK AO2 SLP238 T02060167 51012
KABY 220153Z AUTO 07006KT 10SM CLR 22/17 A3023 RMK AO2 SLP234 T02220167
KABY 220053Z AUTO 07007KT 10SM FEW046 23/17 A3022 RMK AO2 SLP231 T02330167
KABY 212353Z 06007KT 10SM CLR 24/16 A3020 RMK AO2 SLP226 T02390161 10294 20233 53003
KABY 212253Z 06009KT 10SM FEW060 26/16 A3019 RMK AO2 SLP222 T02610156
KABY 212153Z 08009KT 10SM SCT060 28/16 A3019 RMK AO2 SLP221 T02830156
KABY 212053Z 10008KT 10SM BKN055 28/16 A3019 RMK AO2 SLP223 T02830161 55008
KABY 211953Z 09009KT 10SM BKN060 28/16 A3019 RMK AO2 SLP223 T02830161
KABY 211853Z 11010KT 10SM BKN060 28/17 A3020 RMK AO2 SLP226 T02830167
KABY 211753Z 08012KT 10SM BKN040 28/17 A3022 RMK AO2 SLP231 T02830167 10289 20161 58013
KABY 211653Z 10013KT 10SM BKN035 28/18 A3024 RMK AO2 SLP238 T02830178
KABY 211553Z 09009G17KT 10SM SCT031 27/18 A3025 RMK AO2 SLP243 T02720183
KABY 211453Z 08010KT 10SM CLR 24/18 A3025 RMK AO2 SLP243 T02440178 50010
KABY 211353Z 09007KT 10SM CLR 22/16 A3026 RMK AO2 SLP246 T02170156
KABY 211253Z 06005KT 10SM CLR 18/16 A3024 RMK AO2 SLP240 T01780161
KABY 211153Z 05006KT 10SM CLR 16/16 A3022 RMK AO2 SLP233 T01610156 10172 20156 51013
KABY 211053Z 06003KT 10SM CLR 16/15 A3022 RMK AO2 SLP231 T01610150
KABY 210953Z 00000KT 10SM CLR 16/15 A3020 RMK AO2 SLP226 T01560150